Time;durP1;ratioP1;P1;durP2;ratioP2;P2;SDS_P1;SDS_P2;PMS_P1;PMS_P2;Temp;Humidity;BMP_temperature;BMP_pressure;BME280_temperature;BME280_humidity;BME280_pressure;Samples;Min_cycle;Max_cycle;Signal;HPM_P1;HPM_P2
2022/05/30 00:01:46;;;;;;;10.90;2.45;;;12.90;70.60;;;;;;2318054;58;21128;-73
2022/05/30 00:04:14;;;;;;;10.45;2.60;;;12.90;70.70;;;;;;2317934;58;21052;-73
2022/05/30 00:06:41;;;;;;;8.82;2.05;;;12.90;70.30;;;;;;2317456;58;21072;-73
2022/05/30 00:09:13;;;;;;;6.72;2.30;;;12.80;70.10;;;;;;2317132;58;21127;-73
2022/05/30 00:11:41;;;;;;;10.57;3.00;;;12.70;70.00;;;;;;2317950;58;21048;-73
2022/05/30 00:14:08;;;;;;;10.52;2.12;;;12.70;70.10;;;;;;2318030;58;21132;-73
2022/05/30 00:16:35;;;;;;;8.52;2.20;;;12.60;70.00;;;;;;2317645;58;21040;-73
2022/05/30 00:19:02;;;;;;;8.23;2.58;;;12.50;70.30;;;;;;2317610;58;21108;-73
2022/05/30 00:21:30;;;;;;;13.55;1.95;;;12.40;70.60;;;;;;2317830;58;21610;-73
2022/05/30 00:23:57;;;;;;;7.70;1.85;;;12.30;70.90;;;;;;2558690;54;21141;-73
2022/05/30 00:26:24;;;;;;;7.22;1.90;;;12.20;71.60;;;;;;2317181;58;21594;-73
2022/05/30 00:28:52;;;;;;;10.63;2.30;;;12.20;71.20;;;;;;2317883;58;21112;-73
2022/05/30 00:31:21;;;;;;;10.50;2.10;;;12.10;71.30;;;;;;2317904;58;21072;-73
2022/05/30 00:33:49;;;;;;;9.20;2.20;;;12.00;71.50;;;;;;2317890;58;21040;-73
2022/05/30 00:36:16;;;;;;;12.52;2.45;;;12.00;72.00;;;;;;2317448;58;21037;-73
2022/05/30 00:38:44;;;;;;;10.95;1.95;;;11.90;72.50;;;;;;2317636;58;21052;-73
2022/05/30 00:41:11;;;;;;;10.23;2.17;;;11.90;72.20;;;;;;2317252;58;21060;-73
2022/05/30 00:43:40;;;;;;;8.63;1.95;;;11.90;72.50;;;;;;2558840;54;21131;-73
2022/05/30 00:46:12;;;;;;;9.52;2.65;;;11.90;72.70;;;;;;2317524;58;21094;-76
2022/05/30 00:48:44;;;;;;;5.18;1.73;;;11.90;73.10;;;;;;2317441;58;21044;-76
2022/05/30 00:51:14;;;;;;;8.20;2.33;;;11.90;73.40;;;;;;2316987;58;21080;-74
2022/05/30 00:53:45;;;;;;;12.02;2.50;;;12.00;73.70;;;;;;2316665;58;21527;-74
2022/05/30 00:56:14;;;;;;;7.37;2.22;;;12.10;73.70;;;;;;2316533;58;21049;-75
2022/05/30 00:58:45;;;;;;;10.45;2.85;;;12.10;73.30;;;;;;2557222;54;21123;-74
2022/05/30 01:01:12;;;;;;;9.32;2.60;;;12.20;73.10;;;;;;2316657;58;21538;-75
2022/05/30 01:06:34;;;;;;;8.38;2.40;;;12.20;73.00;;;;;;2316409;58;21577;-74
2022/05/30 01:09:06;;;;;;;6.87;2.95;;;12.30;73.30;;;;;;2317164;58;21314;-74
2022/05/30 01:11:50;;;;;;;6.07;2.10;;;12.30;73.50;;;;;;2316913;58;21064;-74
2022/05/30 01:14:19;;;;;;;6.90;2.28;;;12.30;73.80;;;;;;2316289;58;21072;-75
2022/05/30 01:16:46;;;;;;;8.65;2.85;;;12.40;73.60;;;;;;2315044;58;21060;-75
2022/05/30 01:19:27;;;;;;;6.05;2.10;;;12.40;73.70;;;;;;2316908;58;21056;-74
2022/05/30 01:22:14;;;;;;;6.28;1.90;;;12.50;73.80;;;;;;2316045;58;21152;-74
2022/05/30 01:24:52;;;;;;;3.50;1.52;;;12.60;73.90;;;;;;2556903;54;21056;-74
2022/05/30 01:27:35;;;;;;;9.00;2.15;;;12.60;73.80;;;;;;2316737;58;21048;-74
2022/05/30 01:30:07;;;;;;;8.32;2.10;;;12.70;73.60;;;;;;2316455;58;21088;-75
2022/05/30 01:32:34;;;;;;;5.55;2.03;;;12.70;73.40;;;;;;2316431;58;21044;-75
2022/05/30 01:35:02;;;;;;;5.95;1.80;;;12.70;73.30;;;;;;2316186;58;21044;-75
2022/05/30 01:37:29;;;;;;;5.57;2.55;;;12.70;73.40;;;;;;2316615;58;21336;-75
2022/05/30 01:39:56;;;;;;;7.60;1.83;;;12.70;73.60;;;;;;2316738;58;21064;-75
2022/05/30 01:42:23;;;;;;;3.50;1.67;;;12.80;73.60;;;;;;2316638;58;21168;-75
2022/05/30 01:44:51;;;;;;;6.18;1.70;;;12.80;73.50;;;;;;2316685;58;21076;-75
2022/05/30 01:47:18;;;;;;;7.72;1.92;;;12.80;73.30;;;;;;2316106;58;21249;-75
2022/05/30 01:49:45;;;;;;;10.00;1.85;;;12.80;73.40;;;;;;2317046;58;21033;-75
2022/05/30 01:52:12;;;;;;;10.27;2.35;;;12.80;73.50;;;;;;2557178;54;21064;-75
2022/05/30 01:54:40;;;;;;;12.18;2.30;;;12.90;73.40;;;;;;2316531;58;21060;-75
2022/05/30 01:57:07;;;;;;;6.05;1.77;;;12.90;73.20;;;;;;2316313;58;21262;-75
2022/05/30 01:59:34;;;;;;;3.53;1.90;;;12.90;73.20;;;;;;2316950;58;21211;-75
2022/05/30 02:02:01;;;;;;;7.90;1.73;;;12.90;73.40;;;;;;2316684;58;21056;-75
2022/05/30 02:04:29;;;;;;;9.25;2.53;;;12.90;73.40;;;;;;2316803;58;21107;-75
2022/05/30 02:06:56;;;;;;;8.13;2.37;;;13.00;73.30;;;;;;2316440;58;21048;-75
2022/05/30 02:09:23;;;;;;;6.28;1.87;;;13.00;73.30;;;;;;2316668;58;21052;-75
2022/05/30 02:11:50;;;;;;;4.72;2.60;;;13.00;73.30;;;;;;2316200;58;21689;-75
2022/05/30 02:14:18;;;;;;;8.45;2.10;;;13.00;73.20;;;;;;2557116;54;21124;-75
2022/05/30 02:17:00;;;;;;;7.60;1.95;;;13.00;73.20;;;;;;2316602;58;21068;-75
2022/05/30 02:19:28;;;;;;;6.03;1.92;;;13.00;73.10;;;;;;2317591;58;21056;-75
2022/05/30 02:21:55;;;;;;;3.87;1.75;;;13.00;73.10;;;;;;2316309;58;21088;-75
2022/05/30 02:24:23;;;;;;;4.35;1.83;;;13.00;73.10;;;;;;2317163;58;21056;-74
2022/05/30 02:26:50;;;;;;;3.40;1.77;;;13.00;73.10;;;;;;2316658;58;21060;-75
2022/05/30 02:29:18;;;;;;;6.65;2.28;;;13.10;73.30;;;;;;2316796;58;21052;-75
2022/05/30 02:31:45;;;;;;;7.37;1.95;;;13.10;73.40;;;;;;2315632;58;21136;-74
2022/05/30 02:36:58;;;;;;;7.72;2.37;;;13.10;73.00;;;;;;2316409;58;21020;-74
2022/05/30 02:39:27;;;;;;;4.25;1.92;;;13.10;73.10;;;;;;2316781;58;22478;-74
2022/05/30 02:41:55;;;;;;;5.53;2.00;;;13.10;73.30;;;;;;2317128;58;21076;-74
2022/05/30 02:44:25;;;;;;;8.35;1.50;;;13.10;73.40;;;;;;2317104;58;21060;-74
2022/05/30 02:46:54;;;;;;;6.65;1.80;;;13.10;73.20;;;;;;2316409;58;21119;-74
2022/05/30 02:49:22;;;;;;;6.35;2.00;;;13.10;73.00;;;;;;2315696;58;21135;-74
2022/05/30 02:51:49;;;;;;;6.85;2.17;;;13.10;72.90;;;;;;2316752;58;21127;-74
2022/05/30 02:54:18;;;;;;;6.80;2.10;;;13.10;72.90;;;;;;2316625;58;21139;-74
2022/05/30 02:56:50;;;;;;;5.65;2.72;;;13.00;72.90;;;;;;2316850;58;21052;-74
2022/05/30 02:59:17;;;;;;;5.43;1.80;;;13.10;73.10;;;;;;2316809;58;21144;-74
2022/05/30 03:01:45;;;;;;;4.90;1.90;;;13.10;73.10;;;;;;2316798;58;21215;-74
2022/05/30 03:04:14;;;;;;;8.77;2.05;;;13.10;72.80;;;;;;2316707;58;21105;-74
2022/05/30 03:06:42;;;;;;;4.55;1.92;;;13.10;72.60;;;;;;2315402;58;21112;-74
2022/05/30 03:09:10;;;;;;;6.07;2.25;;;13.10;72.70;;;;;;2555449;54;21124;-74
2022/05/30 03:11:38;;;;;;;3.72;1.77;;;13.10;72.40;;;;;;2316508;58;21136;-74
2022/05/30 03:14:06;;;;;;;8.10;2.03;;;13.10;72.30;;;;;;2557178;54;21068;-74
2022/05/30 03:16:33;;;;;;;7.07;2.87;;;13.10;72.30;;;;;;2315889;58;21095;-74
2022/05/30 03:19:00;;;;;;;6.85;1.90;;;13.10;72.10;;;;;;2316858;58;21549;-74
2022/05/30 03:21:27;;;;;;;5.35;2.50;;;13.10;72.20;;;;;;2316456;58;21076;-74
2022/05/30 03:23:55;;;;;;;5.10;2.03;;;13.10;72.30;;;;;;2316971;58;21068;-74
2022/05/30 03:26:22;;;;;;;8.48;2.47;;;13.10;72.10;;;;;;2315677;58;21729;-74
2022/05/30 03:28:49;;;;;;;8.77;2.33;;;13.10;72.20;;;;;;2316208;58;21558;-74
2022/05/30 03:31:16;;;;;;;7.43;2.58;;;13.10;72.60;;;;;;2316688;58;21056;-74
2022/05/30 03:33:44;;;;;;;8.60;2.47;;;13.00;72.40;;;;;;2316769;58;21044;-75
2022/05/30 03:36:16;;;;;;;10.20;2.55;;;13.00;72.50;;;;;;2316606;58;21641;-74
2022/05/30 03:38:44;;;;;;;13.32;2.58;;;13.00;72.50;;;;;;2316845;58;21064;-74
2022/05/30 03:41:11;;;;;;;8.55;2.83;;;13.00;73.20;;;;;;2316340;58;21562;-74
2022/05/30 03:43:38;;;;;;;12.27;2.75;;;13.00;72.40;;;;;;2316787;58;21040;-74
2022/05/30 03:46:05;;;;;;;10.98;2.47;;;13.00;73.30;;;;;;2315984;58;21638;-74
2022/05/30 03:48:33;;;;;;;10.40;2.97;;;13.00;72.40;;;;;;2316736;58;21594;-74
2022/05/30 03:51:03;;;;;;;8.40;2.15;;;13.00;72.70;;;;;;2316428;58;21630;-74
2022/05/30 03:53:30;;;;;;;9.70;2.20;;;13.00;72.70;;;;;;2316791;58;21125;-76
2022/05/30 03:55:57;;;;;;;8.70;2.40;;;12.90;72.70;;;;;;2316327;58;21052;-75
2022/05/30 03:58:25;;;;;;;7.65;2.83;;;12.90;72.80;;;;;;2316096;58;21056;-76
2022/05/30 04:00:52;;;;;;;8.20;2.35;;;12.90;73.20;;;;;;2316695;55;21103;-77
2022/05/30 04:03:20;;;;;;;7.18;2.08;;;12.90;73.10;;;;;;2318290;58;21394;-76
2022/05/30 04:05:47;;;;;;;11.23;2.33;;;13.00;73.10;;;;;;2318620;58;21111;-75
2022/05/30 04:08:14;;;;;;;7.95;2.78;;;13.00;72.90;;;;;;2318197;58;21056;-75
2022/05/30 04:10:41;;;;;;;9.07;2.10;;;13.00;73.00;;;;;;2318637;58;21059;-75
2022/05/30 04:13:10;;;;;;;10.18;2.53;;;13.00;73.20;;;;;;2318541;58;21558;-75
2022/05/30 04:15:37;;;;;;;7.22;2.30;;;13.00;73.40;;;;;;2317795;58;21174;-75
2022/05/30 04:18:06;;;;;;;9.43;2.10;;;13.00;73.50;;;;;;2318209;58;21064;-75
2022/05/30 04:20:33;;;;;;;9.93;2.40;;;13.00;73.60;;;;;;2318044;58;21036;-75
2022/05/30 04:23:01;;;;;;;11.38;2.10;;;13.00;73.60;;;;;;2317723;58;21072;-75
2022/05/30 04:25:29;;;;;;;12.60;3.00;;;13.00;73.60;;;;;;2318349;58;21201;-75
2022/05/30 04:27:57;;;;;;;8.23;2.62;;;13.10;73.70;;;;;;2318722;58;21068;-75
2022/05/30 04:30:25;;;;;;;8.43;1.95;;;13.10;74.00;;;;;;2319025;58;21562;-75
2022/05/30 04:32:53;;;;;;;5.10;1.92;;;13.10;73.90;;;;;;2318054;58;21653;-75
2022/05/30 04:35:21;;;;;;;10.15;3.12;;;13.10;74.20;;;;;;2558771;53;21642;-75
2022/05/30 04:37:50;;;;;;;5.68;2.65;;;13.10;74.00;;;;;;2318425;58;21051;-75
2022/05/30 04:40:19;;;;;;;9.75;2.45;;;13.20;73.70;;;;;;2317822;58;21064;-75
2022/05/30 04:42:47;;;;;;;6.82;2.55;;;13.20;73.80;;;;;;2318550;58;21052;-75
2022/05/30 04:45:15;;;;;;;6.75;2.12;;;13.20;73.40;;;;;;2559568;54;21100;-75
2022/05/30 04:47:43;;;;;;;8.15;2.40;;;13.30;73.10;;;;;;2318826;58;21100;-75
2022/05/30 04:50:14;;;;;;;7.50;2.30;;;13.30;72.90;;;;;;2318030;58;21586;-75
2022/05/30 04:52:41;;;;;;;7.90;2.28;;;13.30;72.90;;;;;;2318792;58;21056;-75
2022/05/30 04:57:48;;;;;;;12.48;2.75;;;13.30;72.90;;;;;;2348985;57;22123;-74
2022/05/30 05:00:19;;;;;;;5.95;2.22;;;13.30;73.00;;;;;;2347459;57;21121;-74
2022/05/30 05:02:46;;;;;;;6.85;2.35;;;13.30;73.00;;;;;;2347441;57;21539;-74
2022/05/30 05:05:14;;;;;;;4.75;2.87;;;13.30;72.90;;;;;;2595104;53;21081;-74
2022/05/30 05:07:53;;;;;;;8.23;2.75;;;13.30;73.00;;;;;;2346967;57;21030;-74
2022/05/30 05:10:35;;;;;;;11.20;2.53;;;13.30;73.00;;;;;;2347188;57;21038;-74
2022/05/30 05:13:02;;;;;;;8.45;2.78;;;13.30;72.40;;;;;;2345304;57;21129;-74
2022/05/30 05:15:29;;;;;;;9.48;2.22;;;13.30;72.60;;;;;;2344866;57;21053;-74
2022/05/30 05:17:57;;;;;;;6.53;2.53;;;13.30;72.30;;;;;;2346843;57;21105;-74
2022/05/30 05:20:24;;;;;;;5.45;2.25;;;13.30;72.10;;;;;;2346133;57;21046;-74
2022/05/30 05:22:52;;;;;;;4.68;2.20;;;13.30;72.00;;;;;;2347090;57;21348;-75
2022/05/30 05:25:19;;;;;;;7.35;1.98;;;13.30;72.00;;;;;;2347028;57;21145;-76
2022/05/30 05:27:49;;;;;;;3.08;1.83;;;13.30;72.10;;;;;;2346422;57;21109;-75
2022/05/30 05:30:16;;;;;;;4.75;2.33;;;13.30;71.90;;;;;;2594914;53;21113;-74
2022/05/30 05:32:44;;;;;;;8.68;2.85;;;13.30;72.40;;;;;;2345876;57;21041;-74
2022/05/30 05:35:11;;;;;;;10.65;2.33;;;13.30;72.70;;;;;;2346398;57;21101;-74
2022/05/30 05:37:39;;;;;;;11.75;2.60;;;13.40;72.80;;;;;;2346394;57;21358;-74
2022/05/30 05:40:08;;;;;;;9.68;2.28;;;13.40;71.90;;;;;;2347112;57;21129;-74
2022/05/30 05:42:35;;;;;;;8.18;2.25;;;13.40;72.10;;;;;;2347710;57;21604;-74
2022/05/30 05:45:05;;;;;;;8.07;2.30;;;13.50;72.60;;;;;;2346579;57;21109;-74
2022/05/30 05:47:32;;;;;;;8.38;2.30;;;13.50;72.70;;;;;;2347047;57;21662;-74
2022/05/30 05:49:59;;;;;;;5.53;1.90;;;13.50;72.30;;;;;;2594452;53;21113;-74
2022/05/30 05:52:28;;;;;;;6.37;1.98;;;13.60;71.90;;;;;;2346085;57;21531;-74
2022/05/30 05:54:56;;;;;;;8.30;2.00;;;13.60;71.80;;;;;;2346625;57;21177;-74
2022/05/30 05:57:25;;;;;;;9.38;2.42;;;13.50;71.70;;;;;;2593958;52;21046;-74
2022/05/30 05:59:53;;;;;;;8.43;2.65;;;13.50;71.50;;;;;;2346758;57;21117;-74
2022/05/30 06:02:22;;;;;;;7.72;2.05;;;13.50;71.50;;;;;;2347016;57;21061;-74
2022/05/30 06:04:52;;;;;;;8.57;2.67;;;13.50;71.20;;;;;;2347277;57;21030;-74
2022/05/30 06:07:20;;;;;;;8.38;1.90;;;13.50;71.00;;;;;;2346372;57;21109;-74
2022/05/30 06:09:47;;;;;;;5.32;2.00;;;13.60;71.10;;;;;;2346062;57;21686;-74
2022/05/30 06:12:15;;;;;;;4.80;1.95;;;13.60;71.40;;;;;;2346037;57;21093;-74
2022/05/30 06:14:42;;;;;;;5.68;2.12;;;13.70;72.50;;;;;;2345585;57;21045;-74
2022/05/30 06:19:46;;;;;;;6.25;1.87;;;13.70;71.90;;;;;;2334937;57;27794;-74
2022/05/30 06:22:13;;;;;;;7.53;1.80;;;13.70;71.90;;;;;;2346892;57;21129;-74
2022/05/30 06:24:41;;;;;;;5.82;1.87;;;13.80;71.70;;;;;;2346970;57;21084;-74
2022/05/30 06:27:15;;;;;;;5.97;1.65;;;13.90;71.10;;;;;;2346778;57;21065;-74
2022/05/30 06:29:42;;;;;;;6.68;1.83;;;13.90;71.00;;;;;;2319944;58;21123;-74
2022/05/30 06:32:10;;;;;;;6.43;2.17;;;14.00;70.90;;;;;;2319575;58;21043;-74
2022/05/30 06:34:37;;;;;;;7.05;1.60;;;14.00;70.90;;;;;;2319673;58;21056;-74
2022/05/30 06:37:05;;;;;;;7.07;2.22;;;14.10;70.90;;;;;;2319729;58;21053;-74
2022/05/30 06:39:32;;;;;;;8.20;2.42;;;14.10;71.20;;;;;;2319841;58;22235;-74
2022/05/30 06:41:59;;;;;;;7.70;1.60;;;14.20;71.00;;;;;;2320102;58;21044;-74
2022/05/30 06:44:27;;;;;;;6.65;1.62;;;14.30;70.80;;;;;;2319987;58;21343;-74
2022/05/30 06:46:54;;;;;;;4.82;1.75;;;14.30;70.20;;;;;;2319387;58;21103;-74
2022/05/30 06:49:21;;;;;;;6.18;1.37;;;14.30;69.40;;;;;;2319935;58;21060;-74
2022/05/30 06:51:48;;;;;;;6.70;1.73;;;14.30;69.50;;;;;;2320059;58;21565;-74
2022/05/30 06:54:16;;;;;;;11.48;2.83;;;14.40;70.00;;;;;;2319245;58;21131;-74
2022/05/30 06:58:12;;;;;;;6.70;2.00;;;14.40;69.60;;;;;;2319092;58;21036;-74
2022/05/30 07:00:39;;;;;;;5.90;1.50;;;14.50;69.30;;;;;;2319044;58;21135;-74
2022/05/30 07:03:07;;;;;;;8.60;1.70;;;14.60;69.40;;;;;;2320283;58;21063;-74
2022/05/30 07:05:34;;;;;;;8.52;1.90;;;14.60;68.60;;;;;;2558920;54;21075;-74
2022/05/30 07:08:01;;;;;;;6.75;2.10;;;14.60;68.70;;;;;;2318536;58;21038;-74
2022/05/30 07:10:30;;;;;;;6.70;2.30;;;14.60;68.30;;;;;;2319959;58;21187;-74
2022/05/30 07:12:59;;;;;;;5.47;2.20;;;14.70;68.30;;;;;;2319684;58;21558;-74
2022/05/30 07:15:26;;;;;;;4.03;1.37;;;14.70;67.10;;;;;;2319435;58;21116;-74
2022/05/30 07:17:54;;;;;;;3.83;1.65;;;14.70;66.70;;;;;;2320118;58;21135;-74
2022/05/30 07:20:21;;;;;;;3.33;1.48;;;14.70;66.60;;;;;;2319663;58;21389;-74
2022/05/30 07:22:48;;;;;;;6.47;1.55;;;14.70;66.60;;;;;;2320320;58;21119;-75
2022/05/30 07:25:16;;;;;;;7.68;1.70;;;14.80;67.40;;;;;;2319753;58;21052;-74
2022/05/30 07:27:43;;;;;;;3.78;1.55;;;14.80;67.40;;;;;;2561012;54;21067;-74
2022/05/30 07:32:49;;;;;;;5.85;1.90;;;15.00;67.70;;;;;;2354991;57;22671;-74
2022/05/30 07:35:16;;;;;;;10.13;2.28;;;15.00;66.70;;;;;;2594377;53;21546;-74
2022/05/30 07:37:44;;;;;;;7.05;1.67;;;15.00;65.90;;;;;;2353774;56;21090;-74
2022/05/30 07:40:13;;;;;;;3.97;1.85;;;15.00;65.50;;;;;;2374803;56;21055;-75
2022/05/30 07:42:41;;;;;;;8.10;1.73;;;15.00;65.20;;;;;;2627420;52;21566;-75
2022/05/30 07:45:10;;;;;;;8.02;1.60;;;15.00;65.10;;;;;;2374207;56;21126;-75
2022/05/30 07:47:38;;;;;;;4.80;1.52;;;15.00;65.20;;;;;;2374321;56;21070;-75
2022/05/30 07:50:08;;;;;;;6.53;2.33;;;15.10;64.90;;;;;;2374875;56;21302;-75
2022/05/30 07:52:35;;;;;;;3.97;1.48;;;15.10;65.00;;;;;;2374852;56;21113;-75
2022/05/30 07:55:03;;;;;;;7.47;1.60;;;15.10;64.70;;;;;;2373518;56;21062;-75
2022/05/30 08:03:06;;;;;;;5.05;1.65;;;15.00;64.50;;;;;;2334467;57;28188;-75
2022/05/30 08:05:33;;;;;;;6.32;1.75;;;14.80;65.60;;;;;;2344738;57;21053;-75
2022/05/30 08:08:00;;;;;;;5.53;1.83;;;14.90;65.60;;;;;;2354728;56;21114;-75
2022/05/30 08:10:28;;;;;;;6.78;1.73;;;14.90;65.60;;;;;;2373440;56;21083;-75
2022/05/30 08:12:55;;;;;;;3.62;1.48;;;14.90;64.10;;;;;;2373178;56;21027;-75
2022/05/30 08:15:23;;;;;;;4.95;2.12;;;15.00;64.10;;;;;;2373391;56;21047;-75
2022/05/30 08:17:54;;;;;;;6.28;1.70;;;15.00;64.00;;;;;;2373754;56;21035;-75
2022/05/30 08:20:22;;;;;;;9.50;1.67;;;14.90;63.50;;;;;;2373960;56;21161;-75
2022/05/30 08:22:49;;;;;;;5.05;1.45;;;14.90;64.30;;;;;;2373990;56;21337;-75
2022/05/30 08:25:18;;;;;;;5.87;1.95;;;14.80;65.20;;;;;;2374394;56;21912;-75
2022/05/30 08:27:47;;;;;;;4.05;2.03;;;14.90;66.00;;;;;;2374949;56;21126;-75
2022/05/30 08:30:18;;;;;;;4.95;1.37;;;14.90;65.50;;;;;;2375027;56;21043;-75
2022/05/30 08:32:46;;;;;;;5.68;1.30;;;14.90;64.30;;;;;;2373774;56;21577;-75
2022/05/30 08:35:16;;;;;;;6.05;2.37;;;15.00;64.80;;;;;;2375116;56;21054;-75
2022/05/30 08:37:44;;;;;;;3.37;1.20;;;15.00;64.40;;;;;;2373975;56;21039;-75
2022/05/30 08:43:26;;;;;;;4.10;1.60;;;15.10;64.80;;;;;;2375140;56;21097;-75
2022/05/30 08:46:00;;;;;;;5.95;2.17;;;15.10;63.50;;;;;;2374948;56;21102;-74
2022/05/30 08:48:38;;;;;;;8.68;2.50;;;15.10;62.90;;;;;;2375209;56;21133;-75
2022/05/30 08:51:16;;;;;;;6.50;2.10;;;15.20;62.40;;;;;;2375510;56;21122;-75
2022/05/30 08:54:03;;;;;;;5.10;1.77;;;15.20;61.60;;;;;;2374512;56;21051;-75
2022/05/30 08:56:34;;;;;;;3.60;1.48;;;15.20;62.10;;;;;;2374862;56;21030;-75
2022/05/30 08:59:22;;;;;;;5.12;1.90;;;15.20;63.60;;;;;;2374397;56;21027;-75
2022/05/30 09:01:53;;;;;;;5.93;1.92;;;15.30;64.50;;;;;;2375174;56;21122;-74
2022/05/30 09:07:01;;;;;;;6.60;2.25;;;15.30;65.00;;;;;;2355499;57;22141;-74
2022/05/30 09:09:37;;;;;;;7.28;1.90;;;15.20;64.70;;;;;;2627708;52;21047;-74
2022/05/30 09:12:11;;;;;;;4.80;2.03;;;15.20;63.80;;;;;;2375291;56;21043;-74
2022/05/30 09:14:43;;;;;;;5.03;1.92;;;15.10;63.50;;;;;;2374717;56;21031;-74
2022/05/30 09:17:17;;;;;;;4.57;1.80;;;15.10;65.00;;;;;;2375088;56;21122;-74
2022/05/30 09:19:45;;;;;;;5.95;2.10;;;15.10;65.20;;;;;;2374624;56;21066;-74
2022/05/30 09:22:14;;;;;;;3.83;1.87;;;15.10;65.20;;;;;;2374196;56;21043;-74
2022/05/30 09:25:55;;;;;;;8.45;2.58;;;15.10;65.40;;;;;;2375375;56;21047;-74
2022/05/30 09:28:22;;;;;;;5.72;2.03;;;15.10;65.50;;;;;;2375266;56;21102;-74
2022/05/30 09:30:57;;;;;;;3.78;1.70;;;15.10;65.30;;;;;;2375447;56;21047;-74
2022/05/30 09:33:31;;;;;;;3.50;2.42;;;15.10;65.30;;;;;;2374330;56;21078;-74
2022/05/30 09:36:18;;;;;;;5.72;2.58;;;15.10;64.90;;;;;;2374486;56;21095;-74
2022/05/30 09:38:48;;;;;;;5.15;2.25;;;15.10;64.90;;;;;;2375269;56;21115;-74
2022/05/30 09:41:19;;;;;;;7.05;2.50;;;15.10;65.20;;;;;;2375533;56;21019;-74
2022/05/30 09:43:51;;;;;;;3.55;2.30;;;15.20;65.30;;;;;;2374603;56;21031;-74
2022/05/30 09:46:25;;;;;;;5.40;2.95;;;15.20;65.10;;;;;;2373661;56;21066;-74
2022/05/30 09:49:08;;;;;;;7.22;3.40;;;15.20;65.30;;;;;;2374429;56;21117;-74
2022/05/30 09:51:39;;;;;;;5.78;2.50;;;15.30;65.70;;;;;;2375293;56;21114;-74
2022/05/30 09:54:09;;;;;;;8.57;2.97;;;15.30;65.70;;;;;;2375555;56;21102;-74
2022/05/30 09:56:40;;;;;;;5.85;2.70;;;15.40;65.80;;;;;;2374634;56;21111;-74
2022/05/30 09:59:25;;;;;;;6.85;3.33;;;15.40;65.70;;;;;;2375101;56;21169;-74
2022/05/30 10:01:54;;;;;;;4.20;2.53;;;15.40;65.20;;;;;;2482275;54;21552;-75
2022/05/30 10:04:34;;;;;;;4.53;2.47;;;15.50;64.80;;;;;;2304317;58;21121;-77
2022/05/30 10:07:14;;;;;;;5.03;3.05;;;15.40;64.90;;;;;;2453814;54;21109;-77
2022/05/30 10:09:51;;;;;;;5.18;2.80;;;15.40;64.90;;;;;;2278214;59;21064;-75
2022/05/30 10:15:23;;;;;;;3.15;2.10;;;15.40;64.60;;;;;;2328062;57;22023;-75
2022/05/30 10:17:51;;;;;;;3.50;2.10;;;15.40;64.90;;;;;;2355512;56;21027;-77
2022/05/30 10:20:26;;;;;;;3.92;1.90;;;15.30;64.30;;;;;;2388022;52;21043;-77
2022/05/30 10:28:57;;;;;;;3.45;2.40;;;15.10;65.10;;;;;;2375780;52;21019;-76
2022/05/30 10:31:40;;;;;;;4.80;1.70;;;15.10;65.70;;;;;;2374502;56;21114;-77
2022/05/30 10:34:35;;;;;;;3.97;1.92;;;14.90;65.60;;;;;;2478976;52;21039;-77
2022/05/30 10:37:19;;;;;;;5.85;2.37;;;14.90;65.80;;;;;;2375030;56;21105;-77
2022/05/30 10:39:58;;;;;;;4.12;2.05;;;14.90;66.30;;;;;;2402105;52;21058;-77
2022/05/30 10:42:31;;;;;;;4.53;2.12;;;14.90;66.50;;;;;;2375403;56;21035;-77
2022/05/30 10:45:02;;;;;;;4.80;2.22;;;14.90;66.40;;;;;;2524202;52;21030;-77
2022/05/30 10:47:39;;;;;;;5.68;1.80;;;14.90;66.60;;;;;;2432574;52;21079;-77
2022/05/30 10:50:11;;;;;;;6.20;2.10;;;14.80;66.60;;;;;;2374498;56;21012;-77
2022/05/30 10:52:45;;;;;;;4.80;1.90;;;14.80;66.60;;;;;;2375671;56;21051;-76
2022/05/30 10:55:17;;;;;;;3.92;1.80;;;14.90;67.10;;;;;;2375367;56;21091;-77
2022/05/30 10:57:48;;;;;;;4.45;1.92;;;14.90;67.40;;;;;;2375657;56;21046;-77
2022/05/30 11:00:19;;;;;;;6.70;1.80;;;14.90;67.40;;;;;;2375291;56;21621;-77
2022/05/30 11:02:57;;;;;;;3.65;1.62;;;14.90;67.10;;;;;;2375434;56;21047;-77
2022/05/30 11:05:29;;;;;;;7.05;1.40;;;14.90;67.10;;;;;;2375036;56;21038;-77
2022/05/30 11:08:05;;;;;;;4.35;2.00;;;14.90;67.10;;;;;;2374408;56;21031;-77
2022/05/30 11:10:44;;;;;;;3.97;1.75;;;15.00;66.40;;;;;;2375218;56;21074;-77
2022/05/30 11:13:20;;;;;;;3.85;2.10;;;15.00;66.80;;;;;;2375331;56;21039;-77
2022/05/30 11:15:51;;;;;;;5.75;1.95;;;15.00;67.20;;;;;;2374901;56;21123;-77
2022/05/30 11:18:29;;;;;;;3.72;1.40;;;15.00;67.20;;;;;;2376422;52;21059;-77
2022/05/30 11:21:06;;;;;;;3.50;1.60;;;15.00;66.60;;;;;;2375514;56;21043;-77
2022/05/30 11:23:34;;;;;;;5.72;1.37;;;15.10;67.10;;;;;;2375175;56;21031;-77
2022/05/30 11:26:19;;;;;;;2.58;1.75;;;15.10;66.60;;;;;;2444883;52;21062;-76
2022/05/30 11:29:08;;;;;;;4.03;1.55;;;15.10;66.60;;;;;;2374286;56;21050;-77
2022/05/30 11:31:42;;;;;;;3.53;1.70;;;15.20;66.10;;;;;;2442766;52;21151;-75
2022/05/30 11:34:39;;;;;;;4.57;1.67;;;15.20;66.20;;;;;;2373975;56;21047;-77
2022/05/30 11:37:29;;;;;;;2.90;1.10;;;15.30;67.00;;;;;;2374524;56;21055;-77
2022/05/30 11:40:16;;;;;;;2.33;1.33;;;15.30;66.60;;;;;;2441571;52;21042;-76
2022/05/30 11:42:54;;;;;;;4.78;1.42;;;15.40;66.00;;;;;;2373472;56;21106;-77
2022/05/30 11:45:44;;;;;;;3.87;1.58;;;15.40;65.50;;;;;;2414810;52;21090;-77
2022/05/30 11:48:26;;;;;;;2.08;1.20;;;15.50;65.70;;;;;;2374247;56;21104;-77
2022/05/30 11:51:01;;;;;;;3.95;1.25;;;15.60;65.20;;;;;;2373796;56;21170;-77
2022/05/30 11:53:52;;;;;;;1.10;1.00;;;15.60;63.60;;;;;;2374274;56;21023;-77
2022/05/30 11:56:25;;;;;;;3.92;1.20;;;15.60;64.60;;;;;;2373787;56;21103;-76
2022/05/30 11:59:09;;;;;;;1.65;1.30;;;15.70;64.50;;;;;;2374328;56;21103;-77
2022/05/30 12:01:39;;;;;;;4.05;1.30;;;15.80;64.60;;;;;;2374223;56;21043;-77
2022/05/30 12:04:56;;;;;;;4.87;1.55;;;15.80;63.90;;;;;;2374408;56;21033;-77
2022/05/30 12:07:50;;;;;;;3.05;1.40;;;15.80;62.20;;;;;;2377699;52;21106;-76
2022/05/30 12:10:26;;;;;;;2.42;1.73;;;15.80;61.50;;;;;;2374340;56;21090;-77
2022/05/30 12:13:18;;;;;;;2.47;1.60;;;15.80;61.90;;;;;;2374266;56;21039;-77
2022/05/30 12:16:00;;;;;;;3.55;1.83;;;15.80;62.10;;;;;;2398734;52;21039;-77
2022/05/30 12:24:32;;;;;;;3.17;1.42;;;15.70;61.80;;;;;;2374078;52;21134;-76
2022/05/30 12:27:07;;;;;;;3.03;1.40;;;15.70;62.00;;;;;;2374020;56;21086;-77
2022/05/30 12:29:49;;;;;;;4.15;1.35;;;15.80;61.80;;;;;;2374464;56;21078;-77
2022/05/30 12:32:38;;;;;;;3.45;1.33;;;15.80;62.40;;;;;;2422172;52;21059;-76
2022/05/30 12:35:25;;;;;;;5.65;1.40;;;15.80;61.60;;;;;;2373693;56;21525;-76
2022/05/30 12:38:07;;;;;;;3.47;1.75;;;15.80;61.90;;;;;;2374168;54;21571;-77
2022/05/30 12:40:37;;;;;;;4.68;1.58;;;15.80;63.00;;;;;;2374252;56;21110;-77
2022/05/30 12:43:15;;;;;;;1.20;1.10;;;15.90;62.40;;;;;;2374159;56;21058;-77
2022/05/30 12:45:46;;;;;;;2.22;1.45;;;16.00;62.20;;;;;;2374046;56;21094;-77
2022/05/30 12:48:19;;;;;;;2.65;1.25;;;16.10;61.20;;;;;;2373549;56;21043;-77
2022/05/30 12:54:20;;;;;;;2.65;1.35;;;16.20;61.30;;;;;;2356095;57;22544;-76
2022/05/30 12:57:08;;;;;;;4.60;1.30;;;16.30;61.60;;;;;;2347463;53;21124;-76
2022/05/30 13:00:00;;;;;;;6.87;1.40;;;16.40;62.10;;;;;;2320745;58;21056;-75
2022/05/30 13:03:20;;;;;;;1.77;1.30;;;16.40;61.80;;;;;;2320840;58;21138;-76
2022/05/30 13:06:05;;;;;;;1.80;1.10;;;16.40;61.40;;;;;;2320124;58;21091;-76
2022/05/30 13:12:57;;;;;;;4.57;1.83;;;16.50;62.00;;;;;;2355906;57;22505;-76
2022/05/30 13:15:36;;;;;;;2.30;1.35;;;16.50;62.30;;;;;;2347337;57;21188;-76
2022/05/30 13:18:12;;;;;;;2.70;1.52;;;16.50;62.70;;;;;;2358042;56;21043;-77
2022/05/30 13:20:45;;;;;;;4.62;1.70;;;16.50;63.10;;;;;;2375478;56;21050;-77
2022/05/30 13:23:15;;;;;;;4.32;2.12;;;16.60;63.50;;;;;;2375277;56;21541;-77
2022/05/30 13:25:47;;;;;;;2.03;1.40;;;16.60;63.30;;;;;;2417001;52;21117;-77
2022/05/30 13:28:19;;;;;;;2.37;1.35;;;16.70;62.70;;;;;;2444478;52;21570;-77
2022/05/30 13:30:47;;;;;;;2.35;1.60;;;16.70;62.70;;;;;;2375161;56;21078;-77
2022/05/30 13:33:21;;;;;;;2.30;1.73;;;16.80;62.20;;;;;;2375231;56;21062;-77
2022/05/30 13:35:52;;;;;;;3.83;1.50;;;16.80;62.20;;;;;;2374840;56;21039;-77
2022/05/30 13:38:27;;;;;;;1.42;1.33;;;16.80;62.90;;;;;;2375336;56;21058;-77
2022/05/30 13:40:54;;;;;;;1.80;1.65;;;16.90;62.60;;;;;;2456791;52;21544;-77
2022/05/30 13:43:31;;;;;;;3.30;1.48;;;17.00;62.50;;;;;;2375256;56;21055;-77
2022/05/30 13:45:59;;;;;;;1.83;1.30;;;17.00;62.60;;;;;;2374864;56;21513;-77
2022/05/30 13:48:27;;;;;;;3.40;1.87;;;17.10;62.60;;;;;;2375334;56;21105;-77
2022/05/30 13:50:59;;;;;;;5.25;1.83;;;17.10;62.50;;;;;;2375434;56;21051;-76
2022/05/30 13:53:29;;;;;;;4.10;1.70;;;17.20;63.00;;;;;;2375513;54;21106;-75
2022/05/30 13:56:00;;;;;;;3.30;1.45;;;17.20;62.00;;;;;;2504317;52;21055;-77
2022/05/30 13:58:30;;;;;;;3.37;1.95;;;17.20;61.80;;;;;;2373840;56;21055;-77